台北近場台-松西席(RCSS Approach)

台北近場台-松西席(RCSS Approach)
Songshan Metar:
2017/12/16 16:00 RCSS 161600Z 08008KT 030V120 7000 -DZ FEW008 BKN022 BKN040 13/11 Q1028 NOSIG RMK A3036

站台狀態:

台北飛航服務區-掃描席(區管/近場)
站台狀態: